createdAt,value
2023-01-27T00:00:28.697Z,16.38
2023-01-27T00:02:55.906Z,15.90
2023-01-27T00:05:23.909Z,16.77
2023-01-27T00:07:51.169Z,15.38
2023-01-27T00:10:19.832Z,15.45
2023-01-27T00:13:06.545Z,15.57
2023-01-27T00:15:34.403Z,15.25
2023-01-27T00:18:01.940Z,16.45
2023-01-27T00:20:47.940Z,15.88
2023-01-27T00:23:38.326Z,16.52
2023-01-27T00:26:06.779Z,16.05
2023-01-27T00:28:37.555Z,15.90
2023-01-27T00:31:06.066Z,18.15
2023-01-27T00:33:33.282Z,17.25
2023-01-27T00:36:01.334Z,16.58
2023-01-27T00:38:29.448Z,17.13
2023-01-27T00:41:15.342Z,17.88
2023-01-27T00:43:42.542Z,17.15
2023-01-27T00:46:09.961Z,16.92
2023-01-27T00:48:37.351Z,15.80
2023-01-27T00:51:04.821Z,17.23
2023-01-27T00:53:32.029Z,17.00
2023-01-27T00:55:59.244Z,16.77
2023-01-27T00:58:26.914Z,17.88
2023-01-27T01:00:59.426Z,18.23
2023-01-27T01:03:27.206Z,17.30
2023-01-27T01:05:54.333Z,18.15
2023-01-27T01:08:21.439Z,17.65
2023-01-27T01:10:48.658Z,19.10
2023-01-27T01:13:15.814Z,18.48
2023-01-27T01:15:43.027Z,19.38
2023-01-27T01:18:11.108Z,18.83
2023-01-27T01:20:39.510Z,19.17
2023-01-27T01:23:07.457Z,19.17
2023-01-27T01:25:35.185Z,17.13
2023-01-27T01:28:03.311Z,16.95
2023-01-27T01:30:30.894Z,20.10
2023-01-27T01:32:58.373Z,20.13
2023-01-27T01:35:25.697Z,19.48
2023-01-27T01:37:53.414Z,20.40
2023-01-27T01:40:20.880Z,19.70
2023-01-27T01:42:51.346Z,20.15
2023-01-27T01:45:33.755Z,17.83
2023-01-27T01:48:02.849Z,19.83
2023-01-27T01:50:30.516Z,21.70
2023-01-27T01:52:58.635Z,20.48
2023-01-27T01:55:25.798Z,22.63
2023-01-27T01:57:52.928Z,22.27
2023-01-27T02:00:20.304Z,22.58
2023-01-27T02:02:48.652Z,19.10
2023-01-27T02:05:21.856Z,22.05
2023-01-27T02:07:59.987Z,22.40
2023-01-27T02:10:27.185Z,23.45
2023-01-27T02:12:54.315Z,22.92
2023-01-27T02:15:21.687Z,22.40
2023-01-27T02:17:49.487Z,23.75
2023-01-27T02:20:36.450Z,24.13
2023-01-27T02:23:03.726Z,24.50
2023-01-27T02:25:37.108Z,22.90
2023-01-27T02:28:05.690Z,23.73
2023-01-27T02:30:33.138Z,24.02
2023-01-27T02:33:00.398Z,23.05
2023-01-27T02:35:34.693Z,24.02
2023-01-27T02:38:01.880Z,26.77
2023-01-27T02:40:30.078Z,25.98
2023-01-27T02:42:57.970Z,24.00
2023-01-27T02:45:25.155Z,25.83
2023-01-27T02:47:52.278Z,23.30
2023-01-27T02:50:19.477Z,25.95
2023-01-27T02:52:46.626Z,25.58
2023-01-27T02:55:14.184Z,27.30
2023-01-27T02:57:41.534Z,27.00
2023-01-27T03:00:09.783Z,26.45
2023-01-27T03:02:36.993Z,25.45
2023-01-27T03:05:04.500Z,27.35
2023-01-27T03:07:31.729Z,27.10
2023-01-27T03:09:58.858Z,26.33
2023-01-27T03:12:26.064Z,27.70
2023-01-27T03:15:12.160Z,26.70
2023-01-27T03:17:58.468Z,26.85
2023-01-27T03:20:25.662Z,25.80
2023-01-27T03:22:52.854Z,26.75
2023-01-27T03:25:20.125Z,27.45
2023-01-27T03:27:47.300Z,27.02
2023-01-27T03:30:14.518Z,26.95
2023-01-27T03:32:46.869Z,29.10
2023-01-27T03:35:17.271Z,25.42
2023-01-27T03:38:03.180Z,25.65
2023-01-27T03:40:49.045Z,28.33
2023-01-27T03:43:35.007Z,27.63
2023-01-27T03:46:20.708Z,26.92
2023-01-27T03:48:55.103Z,25.85
2023-01-27T03:51:23.280Z,26.90
2023-01-27T03:53:50.539Z,28.10
2023-01-27T03:56:18.420Z,24.90
2023-01-27T03:58:45.609Z,26.70
2023-01-27T04:01:31.012Z,27.13
2023-01-27T04:04:16.957Z,29.90
2023-01-27T04:06:58.899Z,30.70
2023-01-27T04:09:27.707Z,26.20
2023-01-27T04:11:55.608Z,27.23
2023-01-27T04:14:31.823Z,27.88
2023-01-27T04:17:00.403Z,29.17
2023-01-27T04:19:27.691Z,25.92
2023-01-27T04:21:55.311Z,26.83
2023-01-27T04:24:24.307Z,26.45
2023-01-27T04:26:56.066Z,26.83
2023-01-27T04:29:24.412Z,27.15
2023-01-27T04:31:51.780Z,27.13
2023-01-27T04:34:19.308Z,26.60
2023-01-27T04:36:47.420Z,25.13
2023-01-27T04:39:15.046Z,25.58
2023-01-27T04:41:43.142Z,26.77
2023-01-27T04:44:10.591Z,23.33
2023-01-27T04:46:38.084Z,27.48
2023-01-27T04:49:06.160Z,26.60
2023-01-27T04:51:33.727Z,27.38
2023-01-27T04:54:01.169Z,27.35
2023-01-27T04:56:29.701Z,27.27
2023-01-27T04:59:04.666Z,26.20
2023-01-27T05:01:32.244Z,28.33
2023-01-27T05:03:59.453Z,28.85
2023-01-27T05:06:27.005Z,28.42
2023-01-27T05:08:54.263Z,27.27
2023-01-27T05:11:21.588Z,27.63
2023-01-27T05:13:49.235Z,29.00
2023-01-27T05:16:20.839Z,28.70
2023-01-27T05:18:49.131Z,26.23
2023-01-27T05:21:17.865Z,27.15
2023-01-27T05:23:45.357Z,27.70
2023-01-27T05:26:17.312Z,26.83
2023-01-27T05:28:45.835Z,29.48
2023-01-27T05:31:14.653Z,28.70
2023-01-27T05:33:42.514Z,31.35
2023-01-27T05:36:10.631Z,29.90
2023-01-27T05:38:38.095Z,31.88
2023-01-27T05:41:06.023Z,32.17
2023-01-27T05:43:34.234Z,34.08
2023-01-27T05:46:05.821Z,33.17
2023-01-27T05:48:34.024Z,32.08
2023-01-27T05:51:01.217Z,32.13
2023-01-27T05:53:28.380Z,31.25
2023-01-27T05:55:56.015Z,30.95
2023-01-27T05:58:23.807Z,30.20
2023-01-27T06:00:51.407Z,31.23
2023-01-27T06:03:18.710Z,29.10
2023-01-27T06:05:53.197Z,29.40
2023-01-27T06:08:20.672Z,28.15
2023-01-27T06:10:47.900Z,29.10
2023-01-27T06:13:15.223Z,31.20
2023-01-27T06:15:43.142Z,31.88
2023-01-27T06:18:10.809Z,31.65
2023-01-27T06:20:38.149Z,31.38
2023-01-27T06:23:05.420Z,32.38
2023-01-27T06:25:32.648Z,33.17
2023-01-27T06:27:59.827Z,32.80
2023-01-27T06:30:26.989Z,31.33
2023-01-27T06:32:54.119Z,31.27
2023-01-27T06:35:21.312Z,33.13
2023-01-27T06:37:50.025Z,31.92
2023-01-27T06:40:17.342Z,32.85
2023-01-27T06:42:44.649Z,34.90
2023-01-27T06:45:12.601Z,33.92
2023-01-27T06:47:40.147Z,33.58
2023-01-27T06:50:10.954Z,31.23
2023-01-27T06:52:38.423Z,33.35
2023-01-27T06:55:05.920Z,31.60
2023-01-27T06:57:33.355Z,35.22
2023-01-27T07:00:00.563Z,32.80
2023-01-27T07:02:27.786Z,31.65
2023-01-27T07:04:54.988Z,30.55
2023-01-27T07:07:22.182Z,33.22
2023-01-27T07:09:52.768Z,32.33
2023-01-27T07:12:20.153Z,34.15
2023-01-27T07:14:47.297Z,31.17
2023-01-27T07:17:14.419Z,28.10
2023-01-27T07:19:41.607Z,28.73
2023-01-27T07:22:08.739Z,28.52
2023-01-27T07:24:35.864Z,30.67
2023-01-27T07:27:03.202Z,29.23
2023-01-27T07:29:30.316Z,29.10
2023-01-27T07:31:57.479Z,28.42
2023-01-27T07:34:24.784Z,27.80
2023-01-27T07:36:52.288Z,30.13
2023-01-27T07:39:19.459Z,31.83
2023-01-27T07:41:48.790Z,31.30
2023-01-27T07:44:16.140Z,30.25
2023-01-27T07:46:43.264Z,30.48
2023-01-27T07:49:12.472Z,31.17
2023-01-27T07:51:39.609Z,28.92
2023-01-27T07:54:06.811Z,30.15
2023-01-27T07:56:36.361Z,30.15
2023-01-27T07:59:04.154Z,28.90
2023-01-27T08:01:31.392Z,30.35
2023-01-27T08:03:58.656Z,29.40
2023-01-27T08:06:25.862Z,30.00
2023-01-27T08:08:53.064Z,30.40
2023-01-27T08:11:20.311Z,28.42
2023-01-27T08:13:47.473Z,29.35
2023-01-27T08:16:15.500Z,31.73
2023-01-27T08:18:42.989Z,30.35
2023-01-27T08:21:11.546Z,29.33
2023-01-27T08:23:38.750Z,30.35
2023-01-27T08:26:06.727Z,31.38
2023-01-27T08:28:34.896Z,31.77
2023-01-27T08:31:05.720Z,29.95
2023-01-27T08:33:33.156Z,31.80
2023-01-27T08:36:11.275Z,28.38
2023-01-27T08:38:38.765Z,31.92
2023-01-27T08:41:06.423Z,30.90
2023-01-27T08:43:34.000Z,30.95
2023-01-27T08:46:01.531Z,30.75
2023-01-27T08:48:29.364Z,29.23
2023-01-27T08:50:56.735Z,30.85
2023-01-27T08:53:24.910Z,27.63
2023-01-27T08:55:54.821Z,27.05
2023-01-27T08:58:22.150Z,27.48
2023-01-27T09:00:49.389Z,29.35
2023-01-27T09:03:16.858Z,30.75
2023-01-27T09:05:44.098Z,29.13
2023-01-27T09:08:11.306Z,30.73
2023-01-27T09:10:41.987Z,31.23
2023-01-27T09:13:09.461Z,32.03
2023-01-27T09:15:37.434Z,37.05
2023-01-27T09:18:06.604Z,31.98
2023-01-27T09:20:37.005Z,31.30
2023-01-27T09:23:05.298Z,31.70
2023-01-27T09:25:32.598Z,32.65
2023-01-27T09:28:00.299Z,30.55
2023-01-27T09:30:28.183Z,32.85
2023-01-27T09:32:59.074Z,33.60
2023-01-27T09:35:26.780Z,32.47
2023-01-27T09:37:58.536Z,32.20
2023-01-27T09:40:25.694Z,35.80
2023-01-27T09:43:05.142Z,36.17
2023-01-27T09:45:51.168Z,34.13
2023-01-27T09:48:32.142Z,36.78
2023-01-27T09:51:04.170Z,37.22
2023-01-27T09:53:41.288Z,34.00
2023-01-27T09:56:32.729Z,34.65
2023-01-27T09:59:00.043Z,34.72
2023-01-27T10:01:35.477Z,34.97
2023-01-27T10:04:05.525Z,37.55
2023-01-27T10:06:35.428Z,39.83
2023-01-27T10:09:17.681Z,37.78
2023-01-27T10:11:53.823Z,39.17
2023-01-27T10:14:47.058Z,38.92
2023-01-27T10:17:29.265Z,39.33
2023-01-27T10:20:14.898Z,42.03
2023-01-27T10:23:01.235Z,39.13
2023-01-27T10:25:52.163Z,38.95
2023-01-27T10:28:22.771Z,38.53
2023-01-27T10:31:01.079Z,40.15
2023-01-27T10:33:31.311Z,40.97
2023-01-27T10:36:07.718Z,42.65
2023-01-27T10:38:53.360Z,38.78
2023-01-27T10:41:31.862Z,40.47
2023-01-27T10:44:17.506Z,40.60
2023-01-27T10:46:47.876Z,40.67
2023-01-27T10:49:24.366Z,43.47
2023-01-27T10:52:10.478Z,40.08
2023-01-27T10:54:46.795Z,40.17
2023-01-27T10:57:27.774Z,41.10
2023-01-27T11:00:37.595Z,42.95
2023-01-27T11:03:04.569Z,38.10
2023-01-27T11:05:34.482Z,39.25
2023-01-27T11:08:08.699Z,37.08
2023-01-27T11:11:04.194Z,36.83
2023-01-27T11:13:32.062Z,37.15
2023-01-27T11:16:00.407Z,35.97
2023-01-27T11:18:28.926Z,35.58
2023-01-27T11:21:11.652Z,34.78
2023-01-27T11:23:43.366Z,34.13
2023-01-27T11:26:23.729Z,36.50
2023-01-27T11:29:09.568Z,37.00
2023-01-27T11:31:45.989Z,36.58
2023-01-27T11:34:25.061Z,38.83
2023-01-27T11:36:52.343Z,38.72
2023-01-27T11:39:19.481Z,36.92
2023-01-27T11:41:48.443Z,37.05
2023-01-27T11:44:20.010Z,38.13
2023-01-27T11:46:47.986Z,36.88
2023-01-27T11:49:28.667Z,35.17
2023-01-27T11:52:05.650Z,37.10
2023-01-27T11:55:05.353Z,39.05
2023-01-27T11:57:33.493Z,36.35
2023-01-27T12:00:12.140Z,38.95
2023-01-27T12:02:44.698Z,38.80
2023-01-27T12:05:14.645Z,36.55
2023-01-27T12:07:56.694Z,38.17
2023-01-27T12:10:30.121Z,39.50
2023-01-27T12:12:58.178Z,37.17
2023-01-27T12:15:26.999Z,35.63
2023-01-27T12:17:59.829Z,35.67
2023-01-27T12:20:32.837Z,33.75
2023-01-27T12:23:01.888Z,33.55
2023-01-27T12:25:32.197Z,36.38
2023-01-27T12:28:00.514Z,32.72
2023-01-27T12:30:32.951Z,33.95
2023-01-27T12:33:00.671Z,35.80
2023-01-27T12:35:29.581Z,37.35
2023-01-27T12:38:05.502Z,33.13
2023-01-27T12:40:32.955Z,30.70
2023-01-27T12:43:06.821Z,32.92
2023-01-27T12:45:35.528Z,33.35
2023-01-27T12:48:16.101Z,31.17
2023-01-27T12:50:43.181Z,32.20
2023-01-27T12:53:14.770Z,27.63
2023-01-27T12:55:44.466Z,30.67
2023-01-27T12:58:29.178Z,25.92
2023-01-27T13:00:57.716Z,25.45
2023-01-27T13:03:25.320Z,30.67
2023-01-27T13:05:56.711Z,30.90
2023-01-27T13:10:58.375Z,31.73
2023-01-27T13:13:26.532Z,29.92
2023-01-27T13:15:56.444Z,31.38
2023-01-27T13:18:23.717Z,32.70
2023-01-27T16:23:39.868Z,17.23
2023-01-27T16:26:10.029Z,15.38
2023-01-27T16:28:38.001Z,18.38
2023-01-27T16:31:14.167Z,20.05
2023-01-27T16:33:46.339Z,19.67
2023-01-27T16:38:49.559Z,19.10
2023-01-27T16:41:19.617Z,17.05
2023-01-27T16:43:51.670Z,20.30
2023-01-27T16:46:38.269Z,18.70
2023-01-27T16:49:11.453Z,18.42
2023-01-27T16:51:38.985Z,19.33
2023-01-27T16:54:14.852Z,19.73
2023-01-27T16:56:42.051Z,19.45
2023-01-27T16:59:10.733Z,18.95
2023-01-27T17:01:43.345Z,18.92
2023-01-27T17:04:20.158Z,17.70
2023-01-27T17:06:48.348Z,19.13
2023-01-27T17:09:23.113Z,19.42
2023-01-27T17:11:50.421Z,18.73
2023-01-27T17:14:30.065Z,17.42
2023-01-27T17:16:59.846Z,19.20
2023-01-27T17:19:34.088Z,17.50
2023-01-27T17:22:06.786Z,20.23
2023-01-27T17:24:38.147Z,18.85
2023-01-27T17:29:42.807Z,20.00
2023-01-27T17:32:22.169Z,17.52
2023-01-27T17:34:51.045Z,19.75
2023-01-27T17:37:20.109Z,22.15
2023-01-27T17:39:48.104Z,19.52
2023-01-27T17:42:19.004Z,22.42
2023-01-27T17:44:47.191Z,19.58
2023-01-27T17:47:18.662Z,20.88
2023-01-27T17:49:47.247Z,20.58
2023-01-27T17:52:27.569Z,22.98
2023-01-27T17:54:55.143Z,21.88
2023-01-27T17:57:35.413Z,21.65
2023-01-27T18:00:04.436Z,21.33
2023-01-27T18:02:35.961Z,23.27
2023-01-27T18:05:05.421Z,20.30
2023-01-27T18:07:33.662Z,22.85
2023-01-27T18:10:00.797Z,22.73
2023-01-27T18:12:37.852Z,25.48
2023-01-27T18:15:23.839Z,23.45
2023-01-27T18:18:01.169Z,20.90
2023-01-27T18:20:30.025Z,23.02
2023-01-27T18:22:57.339Z,23.95
2023-01-27T18:25:24.566Z,26.05
2023-01-27T18:27:53.292Z,22.23
2023-01-27T18:30:21.902Z,23.35
2023-01-27T18:32:51.490Z,21.83
2023-01-27T18:35:28.933Z,22.92
2023-01-27T18:37:56.229Z,20.45
2023-01-27T18:40:28.637Z,21.85
2023-01-27T18:42:56.864Z,21.75
2023-01-27T18:45:24.466Z,21.67
2023-01-27T18:47:51.676Z,23.08
2023-01-27T18:50:22.986Z,22.13
2023-01-27T18:55:17.689Z,20.88
2023-01-27T18:57:46.068Z,13.95
2023-01-27T19:00:20.577Z,21.75
2023-01-27T19:02:50.061Z,21.00
2023-01-27T19:05:19.799Z,21.52
2023-01-27T19:07:47.013Z,21.65
2023-01-27T19:10:15.936Z,21.77
2023-01-27T19:12:43.184Z,20.63
2023-01-27T19:15:12.877Z,21.30
2023-01-27T19:17:40.306Z,18.98
2023-01-27T19:20:18.236Z,23.30
2023-01-27T19:22:46.092Z,20.77
2023-01-27T19:25:13.614Z,22.15
2023-01-27T19:27:42.258Z,20.83
2023-01-27T19:30:29.987Z,22.42
2023-01-27T19:32:57.790Z,23.38
2023-01-27T19:35:25.743Z,22.08
2023-01-27T19:37:55.120Z,22.77
2023-01-27T19:40:22.288Z,21.70
2023-01-27T19:42:49.597Z,22.08
2023-01-27T19:45:17.883Z,22.23
2023-01-27T19:47:46.995Z,20.25
2023-01-27T19:50:24.637Z,22.33
2023-01-27T19:52:52.137Z,21.48
2023-01-27T19:55:20.665Z,21.27
2023-01-27T19:57:48.420Z,22.08
2023-01-27T20:00:15.569Z,19.48
2023-01-27T20:02:43.564Z,20.20
2023-01-27T20:05:10.803Z,20.73
2023-01-27T20:07:37.930Z,20.45
2023-01-27T20:10:06.203Z,18.45
2023-01-27T20:12:34.787Z,19.17
2023-01-27T20:15:02.040Z,18.90
2023-01-27T20:17:29.147Z,19.33
2023-01-27T20:19:56.571Z,19.52
2023-01-27T20:22:26.069Z,16.05
2023-01-27T20:24:53.298Z,19.50
2023-01-27T20:27:20.604Z,21.70
2023-01-27T20:29:47.843Z,20.65
2023-01-27T20:32:15.415Z,23.52
2023-01-27T20:34:42.681Z,23.85
2023-01-27T20:37:09.894Z,22.77
2023-01-27T20:39:37.131Z,22.75
2023-01-27T20:42:04.402Z,22.67
2023-01-27T20:44:31.569Z,20.92
2023-01-27T20:46:58.724Z,21.85
2023-01-27T20:49:26.651Z,22.00
2023-01-27T20:51:54.301Z,20.90
2023-01-27T20:54:21.592Z,23.35
2023-01-27T20:56:48.929Z,23.65
2023-01-27T20:59:16.156Z,24.15
2023-01-27T21:01:44.716Z,22.15
2023-01-27T21:04:11.955Z,22.42
2023-01-27T21:06:39.097Z,24.17
2023-01-27T21:09:06.619Z,26.73
2023-01-27T21:11:33.954Z,23.13
2023-01-27T21:14:01.258Z,22.45
2023-01-27T21:16:28.651Z,22.27
2023-01-27T21:18:56.057Z,23.50
2023-01-27T21:21:23.374Z,23.15
2023-01-27T21:23:50.792Z,21.75
2023-01-27T21:26:20.570Z,20.13
2023-01-27T21:28:47.983Z,21.55
2023-01-27T21:31:16.681Z,22.17
2023-01-27T21:33:50.898Z,21.95
2023-01-27T21:36:18.626Z,23.83
2023-01-27T21:38:52.740Z,21.48
2023-01-27T21:41:39.705Z,22.67
2023-01-27T21:44:26.357Z,19.75
2023-01-27T21:46:53.630Z,20.33
2023-01-27T21:49:20.876Z,20.25
2023-01-27T21:51:50.143Z,20.13
2023-01-27T21:54:17.509Z,20.95
2023-01-27T21:56:44.893Z,18.88
2023-01-27T21:59:12.103Z,22.48
2023-01-27T22:01:39.244Z,21.60
2023-01-27T22:04:06.597Z,21.73
2023-01-27T22:06:33.882Z,20.65
2023-01-27T22:09:01.050Z,20.75
2023-01-27T22:11:28.176Z,21.08
2023-01-27T22:13:55.342Z,20.17
